createdAt,value
2023-01-06T00:01:08.961Z,1.25
2023-01-06T00:03:36.083Z,1.00
2023-01-06T00:06:04.585Z,1.35
2023-01-06T00:08:31.428Z,1.27
2023-01-06T00:11:02.233Z,1.33
2023-01-06T00:13:29.096Z,1.30
2023-01-06T00:15:55.878Z,1.40
2023-01-06T00:18:22.691Z,1.10
2023-01-06T00:20:49.360Z,1.10
2023-01-06T00:23:16.097Z,1.10
2023-01-06T00:25:50.629Z,1.00
2023-01-06T00:28:17.367Z,1.17
2023-01-06T00:30:44.160Z,1.38
2023-01-06T00:33:13.787Z,1.17
2023-01-06T00:35:40.619Z,1.25
2023-01-06T00:38:07.366Z,1.13
2023-01-06T00:40:34.206Z,1.38
2023-01-06T00:43:00.985Z,1.50
2023-01-06T00:45:30.689Z,1.65
2023-01-06T00:47:57.528Z,1.40
2023-01-06T00:50:24.359Z,1.42
2023-01-06T00:52:51.439Z,0.90
2023-01-06T00:55:18.215Z,1.48
2023-01-06T00:57:46.287Z,1.65
2023-01-06T01:00:13.316Z,1.40
2023-01-06T01:02:40.079Z,1.52
2023-01-06T01:05:07.141Z,2.13
2023-01-06T01:07:33.921Z,1.65
2023-01-06T01:10:00.690Z,1.50
2023-01-06T01:12:27.541Z,1.70
2023-01-06T01:14:54.794Z,1.55
2023-01-06T01:17:36.693Z,1.35
2023-01-06T01:20:03.458Z,1.50
2023-01-06T01:22:31.210Z,1.85
2023-01-06T01:24:58.240Z,1.75
2023-01-06T01:27:24.991Z,1.63
2023-01-06T01:29:51.695Z,1.80
2023-01-06T01:32:18.331Z,1.55
2023-01-06T01:34:45.023Z,1.38
2023-01-06T01:37:11.803Z,1.17
2023-01-06T01:39:38.447Z,1.10
2023-01-06T01:42:06.605Z,1.40
2023-01-06T01:44:52.191Z,1.58
2023-01-06T01:47:28.975Z,1.77
2023-01-06T01:49:59.605Z,1.30
2023-01-06T01:52:29.857Z,1.50
2023-01-06T01:54:57.024Z,1.20
2023-01-06T01:57:30.079Z,1.55
2023-01-06T01:59:57.868Z,1.38
2023-01-06T02:02:25.093Z,1.75
2023-01-06T02:04:55.081Z,1.90
2023-01-06T02:07:24.400Z,1.25
2023-01-06T02:10:14.576Z,1.42
2023-01-06T02:12:42.186Z,1.55
2023-01-06T02:15:34.977Z,1.13
2023-01-06T02:18:27.029Z,1.38
2023-01-06T02:21:14.414Z,1.40
2023-01-06T02:24:11.186Z,1.60
2023-01-06T02:26:37.966Z,1.40
2023-01-06T02:29:13.686Z,1.15
2023-01-06T02:31:59.223Z,1.38
2023-01-06T02:34:31.780Z,1.33
2023-01-06T02:37:20.637Z,1.48
2023-01-06T02:39:50.792Z,1.27
2023-01-06T02:42:29.668Z,1.20
2023-01-06T02:45:18.111Z,1.38
2023-01-06T02:48:21.829Z,1.15
2023-01-06T02:51:04.788Z,3.60
2023-01-06T02:53:37.371Z,0.98
2023-01-06T02:56:04.745Z,1.23
2023-01-06T02:58:42.929Z,1.23
2023-01-06T03:01:20.161Z,0.82
2023-01-06T03:03:48.339Z,1.27
2023-01-06T03:06:19.628Z,1.10
2023-01-06T03:08:51.135Z,0.75
2023-01-06T03:11:17.957Z,1.42
2023-01-06T03:13:59.668Z,1.10
2023-01-06T03:16:26.675Z,0.90
2023-01-06T03:18:54.939Z,1.15
2023-01-06T03:21:25.568Z,0.85
2023-01-06T03:23:52.413Z,0.98
2023-01-06T03:26:19.040Z,0.93
2023-01-06T03:28:45.749Z,0.75
2023-01-06T03:31:21.229Z,1.02
2023-01-06T03:33:59.708Z,0.80
2023-01-06T03:36:31.267Z,1.02
2023-01-06T03:39:12.593Z,1.33
2023-01-06T03:42:03.540Z,0.80
2023-01-06T03:44:40.474Z,0.85
2023-01-06T03:47:16.232Z,1.00
2023-01-06T03:49:56.530Z,0.98
2023-01-06T03:52:39.568Z,1.50
2023-01-06T03:55:10.505Z,1.30
2023-01-06T03:57:40.267Z,1.23
2023-01-06T04:00:10.307Z,1.73
2023-01-06T04:02:40.218Z,1.15
2023-01-06T04:05:10.614Z,1.33
2023-01-06T04:07:38.931Z,0.95
2023-01-06T04:10:06.961Z,0.90
2023-01-06T04:12:39.664Z,1.20
2023-01-06T04:15:09.531Z,1.10
2023-01-06T04:17:36.925Z,1.00
2023-01-06T04:20:04.686Z,1.30
2023-01-06T04:22:31.412Z,1.05
2023-01-06T04:24:58.170Z,0.98
2023-01-06T04:27:25.007Z,0.75
2023-01-06T04:29:51.844Z,0.88
2023-01-06T04:32:18.743Z,0.90
2023-01-06T04:34:48.684Z,1.23
2023-01-06T04:37:15.418Z,1.00
2023-01-06T04:39:42.157Z,1.15
2023-01-06T04:42:09.211Z,0.90
2023-01-06T04:44:38.872Z,1.05
2023-01-06T04:47:05.646Z,1.27
2023-01-06T04:49:32.407Z,1.00
2023-01-06T04:51:59.510Z,1.00
2023-01-06T04:54:26.138Z,1.08
2023-01-06T04:56:53.064Z,1.23
2023-01-06T04:59:19.987Z,1.52
2023-01-06T05:01:49.738Z,1.10
2023-01-06T05:04:16.829Z,1.05
2023-01-06T05:06:43.916Z,0.95
2023-01-06T05:09:10.750Z,1.15
2023-01-06T05:11:37.803Z,0.85
2023-01-06T05:14:04.704Z,1.05
2023-01-06T05:16:33.987Z,1.08
2023-01-06T05:19:01.697Z,1.25
2023-01-06T05:21:32.522Z,1.40
2023-01-06T05:24:02.331Z,1.00
2023-01-06T05:26:32.032Z,1.20
2023-01-06T05:28:58.914Z,1.02
2023-01-06T05:31:25.917Z,1.88
2023-01-06T05:33:53.181Z,1.55
2023-01-06T05:36:23.023Z,1.15
2023-01-06T05:38:54.661Z,1.48
2023-01-06T05:41:22.026Z,1.65
2023-01-06T05:43:50.108Z,1.55
2023-01-06T05:46:16.695Z,1.80
2023-01-06T05:48:43.427Z,1.35
2023-01-06T05:51:14.593Z,1.88
2023-01-06T05:53:43.177Z,1.77
2023-01-06T05:56:12.546Z,1.85
2023-01-06T05:58:44.609Z,1.70
2023-01-06T06:01:37.753Z,1.63
2023-01-06T06:04:04.766Z,1.95
2023-01-06T06:06:31.753Z,1.67
2023-01-06T06:09:01.325Z,1.52
2023-01-06T06:11:28.119Z,1.80
2023-01-06T06:13:56.408Z,1.65
2023-01-06T06:16:25.479Z,1.80
2023-01-06T06:18:59.350Z,2.60
2023-01-06T06:21:29.214Z,1.98
2023-01-06T06:23:57.364Z,1.42
2023-01-06T06:26:24.573Z,2.08
2023-01-06T06:28:51.384Z,2.22
2023-01-06T06:31:24.642Z,2.05
2023-01-06T06:33:53.146Z,2.40
2023-01-06T06:36:20.247Z,2.42
2023-01-06T06:38:48.459Z,2.83
2023-01-06T06:41:15.304Z,3.00
2023-01-06T06:43:42.555Z,2.60
2023-01-06T06:46:09.627Z,2.08
2023-01-06T06:48:36.794Z,2.58
2023-01-06T06:51:10.009Z,2.38
2023-01-06T06:53:39.813Z,2.53
2023-01-06T06:56:07.469Z,2.25
2023-01-06T06:58:34.807Z,2.33
2023-01-06T07:01:09.342Z,3.15
2023-01-06T07:03:36.315Z,2.83
2023-01-06T07:06:04.120Z,2.92
2023-01-06T07:08:33.501Z,2.75
2023-01-06T07:11:00.466Z,3.10
2023-01-06T07:13:28.494Z,2.55
2023-01-06T07:15:58.240Z,2.50
2023-01-06T07:18:25.554Z,3.13
2023-01-06T07:20:54.965Z,3.58
2023-01-06T07:23:25.664Z,2.70
2023-01-06T07:25:57.609Z,3.10
2023-01-06T07:28:28.189Z,2.90
2023-01-06T07:30:55.003Z,4.00
2023-01-06T07:33:21.922Z,3.10
2023-01-06T07:35:53.216Z,3.65
2023-01-06T07:38:19.839Z,3.80
2023-01-06T07:40:47.932Z,3.53
2023-01-06T07:43:14.796Z,3.80
2023-01-06T07:45:44.254Z,4.03
2023-01-06T07:48:10.912Z,3.95
2023-01-06T07:50:37.569Z,4.35
2023-01-06T07:53:04.425Z,4.28
2023-01-06T07:55:33.393Z,4.80
2023-01-06T07:58:04.843Z,4.40
2023-01-06T08:00:31.628Z,4.53
2023-01-06T08:02:58.243Z,4.22
2023-01-06T08:05:25.054Z,4.80
2023-01-06T08:07:51.625Z,4.35
2023-01-06T08:10:18.377Z,4.53
2023-01-06T08:12:45.095Z,6.13
2023-01-06T08:15:12.137Z,5.20
2023-01-06T08:17:38.787Z,4.82
2023-01-06T08:20:06.344Z,5.40
2023-01-06T08:22:35.959Z,5.25
2023-01-06T08:25:02.822Z,5.53
2023-01-06T08:27:29.606Z,6.43
2023-01-06T08:29:59.308Z,6.35
2023-01-06T08:32:25.934Z,5.85
2023-01-06T08:34:52.667Z,6.10
2023-01-06T08:37:19.331Z,5.88
2023-01-06T08:39:46.058Z,5.03
2023-01-06T08:42:15.341Z,6.28
2023-01-06T08:44:42.036Z,5.47
2023-01-06T08:47:08.542Z,6.28
2023-01-06T08:49:35.167Z,6.22
2023-01-06T08:52:01.778Z,6.57
2023-01-06T08:54:29.750Z,6.63
2023-01-06T08:56:57.685Z,6.47
2023-01-06T08:59:25.434Z,7.20
2023-01-06T09:01:52.453Z,6.88
2023-01-06T09:04:22.521Z,6.57
2023-01-06T09:06:49.171Z,6.80
2023-01-06T09:09:15.858Z,6.47
2023-01-06T09:11:43.801Z,6.60
2023-01-06T09:14:11.812Z,7.60
2023-01-06T09:16:38.497Z,7.00
2023-01-06T09:19:05.243Z,7.03
2023-01-06T09:21:31.976Z,6.45
2023-01-06T09:23:58.756Z,8.75
2023-01-06T09:26:25.538Z,7.15
2023-01-06T09:28:52.132Z,7.60
2023-01-06T09:31:19.046Z,7.10
2023-01-06T09:33:45.734Z,6.72
2023-01-06T09:36:12.491Z,6.50
2023-01-06T09:38:39.187Z,7.10
2023-01-06T09:41:18.764Z,6.82
2023-01-06T09:44:08.249Z,7.07
2023-01-06T09:46:41.091Z,6.45
2023-01-06T09:49:16.288Z,6.88
2023-01-06T09:51:43.997Z,6.95
2023-01-06T09:54:31.613Z,6.50
2023-01-06T09:57:06.470Z,6.95
2023-01-06T09:59:46.962Z,7.07
2023-01-06T10:02:23.663Z,6.10
2023-01-06T10:04:50.432Z,5.90
2023-01-06T10:07:43.813Z,5.55
2023-01-06T10:10:25.664Z,6.03
2023-01-06T10:13:14.734Z,6.22
2023-01-06T10:15:56.301Z,6.07
2023-01-06T10:18:53.494Z,6.53
2023-01-06T10:21:29.377Z,5.60
2023-01-06T10:24:52.967Z,6.63
2023-01-06T10:27:44.432Z,5.75
2023-01-06T10:30:21.496Z,6.15
2023-01-06T10:32:50.441Z,5.88
2023-01-06T10:35:19.325Z,6.30
2023-01-06T10:37:51.386Z,5.82
2023-01-06T10:40:26.740Z,6.55
2023-01-06T10:43:00.424Z,6.10
2023-01-06T10:45:34.895Z,6.55
2023-01-06T10:48:02.783Z,6.93
2023-01-06T10:50:29.609Z,7.22
2023-01-06T10:52:56.497Z,6.70
2023-01-06T10:55:48.814Z,6.18
2023-01-06T10:58:35.741Z,6.20
2023-01-06T11:01:25.726Z,5.72
2023-01-06T11:04:12.805Z,5.50
2023-01-06T11:06:44.444Z,5.70
2023-01-06T11:09:33.759Z,6.40
2023-01-06T11:12:03.604Z,6.13
2023-01-06T11:14:33.850Z,6.60
2023-01-06T11:17:06.346Z,6.10
2023-01-06T11:19:40.046Z,6.40
2023-01-06T11:24:59.120Z,5.97
2023-01-06T11:27:26.098Z,6.05
2023-01-06T11:29:56.008Z,6.07
2023-01-06T11:32:28.251Z,6.80
2023-01-06T11:34:59.903Z,5.90
2023-01-06T11:37:42.956Z,6.35
2023-01-06T11:40:30.160Z,6.07
2023-01-06T11:43:02.529Z,6.22
2023-01-06T11:45:34.419Z,8.32
2023-01-06T11:48:02.829Z,5.70
2023-01-06T11:50:29.681Z,8.00
2023-01-06T11:53:06.413Z,6.03
2023-01-06T11:55:32.948Z,5.55
2023-01-06T11:58:20.099Z,4.95
2023-01-06T12:00:54.701Z,5.22
2023-01-06T12:03:33.195Z,5.25
2023-01-06T12:06:12.158Z,5.20
2023-01-06T12:08:54.443Z,4.68
2023-01-06T12:11:50.451Z,4.60
2023-01-06T12:14:29.467Z,3.88
2023-01-06T12:16:56.922Z,4.22
2023-01-06T12:19:50.250Z,3.65
2023-01-06T12:22:39.135Z,4.85
2023-01-06T12:25:07.986Z,3.25
2023-01-06T12:27:38.466Z,3.90
2023-01-06T12:30:10.796Z,3.55
2023-01-06T12:32:44.662Z,3.78
2023-01-06T12:35:20.838Z,3.40
2023-01-06T12:37:54.681Z,2.72
2023-01-06T12:41:00.023Z,3.22
2023-01-06T12:43:28.691Z,3.00
2023-01-06T12:46:00.701Z,2.40
2023-01-06T12:48:48.030Z,2.65
2023-01-06T12:51:32.311Z,2.22
2023-01-06T12:54:04.816Z,2.63
2023-01-06T12:56:47.386Z,2.72
2023-01-06T12:59:19.627Z,2.60
2023-01-06T13:01:51.868Z,2.17
2023-01-06T13:04:24.509Z,1.77
2023-01-06T13:07:11.061Z,1.55
2023-01-06T13:09:40.503Z,1.33
2023-01-06T13:12:17.945Z,1.40
2023-01-06T13:14:45.667Z,1.60
2023-01-06T13:17:19.483Z,1.55
2023-01-06T13:19:51.266Z,2.05
2023-01-06T13:22:29.416Z,1.55
2023-01-06T13:25:12.324Z,1.30
2023-01-06T13:28:13.002Z,1.38
2023-01-06T13:31:01.572Z,1.75
2023-01-06T13:34:06.949Z,1.88
2023-01-06T13:36:55.200Z,0.90
2023-01-06T13:39:25.499Z,0.95
2023-01-06T13:41:56.422Z,0.90
2023-01-06T13:44:28.748Z,1.08
2023-01-06T13:47:24.480Z,0.95
2023-01-06T13:49:51.165Z,1.20
2023-01-06T13:52:25.517Z,0.98
2023-01-06T13:54:52.260Z,1.00
2023-01-06T13:57:24.762Z,0.80
2023-01-06T14:00:15.300Z,1.00
2023-01-06T14:02:42.958Z,1.20
2023-01-06T14:05:21.962Z,0.60
2023-01-06T14:07:55.792Z,0.60
2023-01-06T14:10:42.914Z,0.73
2023-01-06T14:13:26.415Z,0.68
2023-01-06T14:16:00.866Z,0.60
2023-01-06T14:18:40.543Z,0.60
2023-01-06T14:21:17.167Z,0.77
2023-01-06T14:23:56.589Z,0.68
2023-01-06T14:26:47.039Z,0.50
2023-01-06T14:29:47.353Z,0.60
2023-01-06T14:32:13.954Z,0.70
2023-01-06T14:34:59.990Z,0.70
2023-01-06T14:37:32.849Z,0.60
2023-01-06T14:40:01.020Z,0.77
2023-01-06T14:42:38.563Z,0.85
2023-01-06T14:45:16.276Z,0.60
2023-01-06T14:47:56.855Z,0.52
2023-01-06T14:50:31.948Z,0.70
2023-01-06T14:53:17.097Z,0.70
2023-01-06T14:55:46.998Z,0.77
2023-01-06T14:58:30.340Z,0.95
2023-01-06T15:00:57.521Z,0.65
2023-01-06T15:03:24.863Z,0.50
2023-01-06T15:05:51.729Z,0.88
2023-01-06T15:08:19.328Z,0.90
2023-01-06T15:10:48.269Z,0.47
2023-01-06T15:13:21.771Z,0.95
2023-01-06T15:15:55.894Z,0.70
2023-01-06T15:18:25.171Z,0.60
2023-01-06T15:20:51.968Z,0.80
2023-01-06T15:23:20.058Z,0.90
2023-01-06T15:25:52.253Z,0.80
2023-01-06T15:28:26.534Z,0.80
2023-01-06T15:30:54.042Z,0.70
2023-01-06T15:33:25.584Z,1.10
2023-01-06T15:35:52.977Z,1.02
2023-01-06T15:38:24.971Z,0.80
2023-01-06T15:40:52.094Z,0.80
2023-01-06T15:43:27.018Z,0.82
2023-01-06T15:46:08.871Z,1.05
2023-01-06T15:48:38.323Z,0.82
2023-01-06T15:51:12.571Z,0.60
2023-01-06T15:53:39.263Z,0.63
2023-01-06T15:56:07.007Z,1.02
2023-01-06T15:58:38.879Z,0.70
2023-01-06T16:01:20.338Z,0.80
2023-01-06T16:03:54.906Z,0.60
2023-01-06T16:06:27.173Z,1.05
2023-01-06T16:08:53.988Z,0.90
2023-01-06T16:11:46.575Z,0.60
2023-01-06T16:14:26.101Z,0.90
2023-01-06T16:16:53.434Z,0.60
2023-01-06T16:19:21.632Z,0.85
2023-01-06T16:21:52.727Z,0.73
2023-01-06T16:24:27.424Z,0.90
2023-01-06T16:26:56.774Z,0.73
2023-01-06T16:29:33.499Z,0.98
2023-01-06T16:32:31.766Z,1.13
2023-01-06T16:35:02.894Z,0.95
2023-01-06T16:37:34.177Z,1.70
2023-01-06T16:40:00.909Z,1.00
2023-01-06T16:42:40.673Z,1.05
2023-01-06T16:45:17.886Z,1.30
2023-01-06T16:47:45.339Z,1.00
2023-01-06T16:50:15.122Z,1.23
2023-01-06T16:52:44.631Z,1.00
2023-01-06T16:55:15.813Z,1.00
2023-01-06T16:57:42.683Z,0.80
2023-01-06T17:00:17.273Z,1.38
2023-01-06T17:02:44.203Z,1.95
2023-01-06T17:05:29.122Z,1.13
2023-01-06T17:07:58.904Z,1.35
2023-01-06T17:10:26.336Z,0.98
2023-01-06T17:13:18.012Z,0.90
2023-01-06T17:15:44.669Z,0.77
2023-01-06T17:18:26.619Z,0.80
2023-01-06T17:21:14.785Z,0.95
2023-01-06T17:23:57.951Z,1.38
2023-01-06T17:26:25.138Z,0.80
2023-01-06T17:28:53.479Z,1.25
2023-01-06T17:31:53.769Z,0.93
2023-01-06T17:34:25.256Z,1.15
2023-01-06T17:36:53.439Z,1.05
2023-01-06T17:39:31.536Z,1.10
2023-01-06T17:42:07.280Z,1.05
2023-01-06T17:45:07.826Z,1.50
2023-01-06T17:47:45.829Z,1.20
2023-01-06T17:50:34.804Z,1.13
2023-01-06T17:53:36.664Z,1.65
2023-01-06T17:56:08.373Z,1.20
2023-01-06T17:58:37.619Z,1.17
2023-01-06T18:01:07.830Z,1.25
2023-01-06T18:03:38.668Z,1.25
2023-01-06T18:06:26.496Z,1.20
2023-01-06T18:09:05.195Z,1.50
2023-01-06T18:11:50.692Z,1.30
2023-01-06T18:14:23.074Z,1.33
2023-01-06T18:16:52.260Z,1.40
2023-01-06T18:19:48.135Z,1.45
2023-01-06T18:22:22.857Z,1.40
2023-01-06T18:24:54.689Z,2.03
2023-01-06T18:27:27.278Z,1.75
2023-01-06T18:29:56.895Z,2.05
2023-01-06T18:32:31.863Z,1.73
2023-01-06T18:35:04.094Z,1.60
2023-01-06T18:37:35.241Z,1.75
2023-01-06T18:40:13.912Z,1.58
2023-01-06T18:42:46.517Z,1.67
2023-01-06T18:45:39.268Z,1.27
2023-01-06T18:48:18.904Z,1.95
2023-01-06T18:50:49.670Z,2.00
2023-01-06T18:53:26.111Z,2.05
2023-01-06T18:55:55.123Z,1.70
2023-01-06T18:58:46.061Z,1.45
2023-01-06T19:01:23.305Z,1.98
2023-01-06T19:04:04.911Z,1.80
2023-01-06T19:06:46.076Z,1.40
2023-01-06T19:09:47.847Z,1.65
2023-01-06T19:12:24.833Z,2.05
2023-01-06T19:14:52.883Z,1.73
2023-01-06T19:17:30.871Z,1.70
2023-01-06T19:20:00.568Z,1.70
2023-01-06T19:22:29.513Z,2.00
2023-01-06T19:25:09.538Z,2.05
2023-01-06T19:27:55.232Z,1.70
2023-01-06T19:30:33.587Z,2.17
2023-01-06T19:33:14.201Z,2.03
2023-01-06T19:35:40.846Z,1.60
2023-01-06T19:38:20.310Z,2.00
2023-01-06T19:40:46.908Z,2.10
2023-01-06T19:43:17.027Z,2.28
2023-01-06T19:45:43.853Z,2.28
2023-01-06T19:48:25.362Z,2.10
2023-01-06T19:51:13.228Z,2.50
2023-01-06T19:53:44.378Z,2.33
2023-01-06T19:56:14.492Z,2.10
2023-01-06T19:58:41.227Z,2.20
2023-01-06T20:01:13.086Z,2.08
2023-01-06T20:03:43.388Z,2.35
2023-01-06T20:06:10.052Z,2.40
2023-01-06T20:08:36.657Z,2.38
2023-01-06T20:11:03.373Z,2.40
2023-01-06T20:13:29.934Z,2.17
2023-01-06T20:15:59.424Z,2.72
2023-01-06T20:18:26.270Z,2.40
2023-01-06T20:20:52.887Z,2.15
2023-01-06T20:23:19.575Z,2.00
2023-01-06T20:25:46.372Z,2.63
2023-01-06T20:28:13.199Z,2.53
2023-01-06T20:30:39.930Z,2.45
2023-01-06T20:33:07.273Z,2.25
2023-01-06T20:35:33.906Z,2.50
2023-01-06T20:38:00.569Z,2.67
2023-01-06T20:40:27.151Z,2.67
2023-01-06T20:42:53.777Z,2.95
2023-01-06T20:45:20.579Z,2.97
2023-01-06T20:47:47.491Z,2.47
2023-01-06T20:50:14.709Z,2.90
2023-01-06T20:52:47.403Z,3.28
2023-01-06T20:55:14.687Z,3.70
2023-01-06T20:57:41.489Z,3.22
2023-01-06T21:00:11.146Z,3.42
2023-01-06T21:02:38.403Z,3.38
2023-01-06T21:05:06.858Z,3.35
2023-01-06T21:07:34.023Z,3.10
2023-01-06T21:10:01.181Z,3.17
2023-01-06T21:12:27.785Z,3.35
2023-01-06T21:14:54.595Z,3.38
2023-01-06T21:17:21.322Z,3.40
2023-01-06T21:19:48.142Z,3.42
2023-01-06T21:22:14.724Z,3.30
2023-01-06T21:24:41.414Z,2.95
2023-01-06T21:27:10.672Z,3.58
2023-01-06T21:29:37.310Z,3.30
2023-01-06T21:32:04.209Z,3.22
2023-01-06T21:34:30.872Z,3.58
2023-01-06T21:36:57.650Z,3.28
2023-01-06T21:39:27.288Z,3.45
2023-01-06T21:42:12.649Z,3.92
2023-01-06T21:44:39.284Z,3.65
2023-01-06T21:47:05.966Z,3.67
2023-01-06T21:49:32.665Z,3.50
2023-01-06T21:52:00.717Z,4.07
2023-01-06T21:54:27.490Z,3.55
2023-01-06T21:56:54.287Z,3.67
2023-01-06T21:59:21.082Z,3.47
2023-01-06T22:01:47.833Z,4.20
2023-01-06T22:04:14.463Z,3.50
2023-01-06T22:06:42.881Z,3.38
2023-01-06T22:09:11.317Z,3.65
2023-01-06T22:11:39.741Z,3.92
2023-01-06T22:14:08.477Z,5.43
2023-01-06T22:16:36.220Z,3.90
2023-01-06T22:19:02.995Z,3.40
2023-01-06T22:21:29.688Z,3.78
2023-01-06T22:23:57.034Z,3.90
2023-01-06T22:26:23.615Z,4.50
2023-01-06T22:28:50.280Z,3.85
2023-01-06T22:31:18.533Z,4.28
2023-01-06T22:33:45.324Z,4.05
2023-01-06T22:36:11.985Z,4.05
2023-01-06T22:38:38.609Z,4.18
2023-01-06T22:41:07.111Z,4.65
2023-01-06T22:43:34.186Z,4.35
2023-01-06T22:46:00.796Z,4.75
2023-01-06T22:48:27.567Z,4.13
2023-01-06T22:51:14.689Z,4.20
2023-01-06T22:53:41.325Z,4.03
2023-01-06T22:56:10.062Z,5.20
2023-01-06T22:58:39.007Z,3.90
2023-01-06T23:01:06.627Z,4.28
2023-01-06T23:03:33.821Z,3.85
2023-01-06T23:06:08.311Z,4.05
2023-01-06T23:08:40.605Z,4.28
2023-01-06T23:11:14.794Z,3.65
2023-01-06T23:13:42.366Z,3.42
2023-01-06T23:16:14.373Z,4.05
2023-01-06T23:18:42.696Z,3.72
2023-01-06T23:21:11.644Z,3.40
2023-01-06T23:23:39.759Z,3.58
2023-01-06T23:26:09.200Z,3.55
2023-01-06T23:28:36.211Z,3.50
2023-01-06T23:31:30.179Z,3.70
2023-01-06T23:34:00.292Z,3.50
2023-01-06T23:36:28.590Z,3.53
2023-01-06T23:38:55.953Z,3.40
2023-01-06T23:41:25.147Z,3.75
2023-01-06T23:43:52.874Z,3.47
2023-01-06T23:46:22.548Z,3.70
2023-01-06T23:48:49.742Z,3.85
2023-01-06T23:51:17.019Z,3.83
2023-01-06T23:53:45.013Z,3.80
2023-01-06T23:56:14.432Z,3.90
2023-01-06T23:58:42.585Z,4.00
